ěÝzenÝ letovÚho provozu ╚eskÚ republiky
Letiste: LKCV Aktualizace: 27.11.2021 22:29:29  UTC
 METAR LKCV 27.11. 22:30 ...
METAR LKCV 272230Z 14004KT CAVOK 01/M01 Q0997 NOSIG RMK BLU BLU=
 TAF LKCV 27.11. 17:00 ...
TAF LKCV 271700Z 2718/2818 14006KT CAVOK      TEMPO 2718/2802 BKN020      BECMG 2802/2804 7000 BKN020      BECMG 2804/2806 3000 SN BKN010 OVC020      TEMPO 2805/2816 1000 SN BKN006 OVC012      BECMG 2809/2811 30008KT=